Steel City, Illinois
Current Conditions -  °F | °C
As of 12:10 AM on Sunday 21 Dec 2014 (Local Time) from KMWA Reporting Station
Clear Clear  
Wind Chill: 30°   Ceiling: Unl
Heat Index: 30°   Visibility: 10mi
Dew Point: 27°   Wind: 0mph
Humidity: 86%   Direction: NA
Pressure: 30.28"   Gusts: NA
Location:  38.0175°N, 88.9351°W
Report Text: KMWA 210610Z AUTO 00000KT 10SM CLR M01/M03 A3028 RMK AO2
Loading
Personal Weather Stations






























Interactive Weather Map New forecast layout! Learn more

10-Day Weather Forecast

Advertisements
Track Severe Weather on mobile